Fish Lake, Indiana
Current Conditions -  °F | °C
As of 6:55 PM on Friday 31 Oct 2014 (Local Time) from KIRS Reporting Station
Overcast Overcast  
Wind Chill: 24°   Ceiling: 2600
Heat Index: 34°   Visibility: 10mi
Dew Point: 30°   Wind: 15mph
Humidity: 87%   Direction: 350°N
Pressure: 30.1"   Gusts: 23mph
Location:  41.6561°N, 85.3683°W
Report Text: KIRS 312255Z AUTO 35013G20KT 10SM BKN026 BKN039 OVC050 01/M01 A3010 RMK AO2
Loading
Personal Weather Stations






























Interactive Weather Map
Tropical Storm Tracking
New forecast layout! Learn more

10-Day Weather Forecast

Advertisements
Track Severe Weather on mobile